createdAt,value
2023-01-29T00:00:11.873Z,100508.44
2023-01-29T00:02:39.609Z,100519.81
2023-01-29T00:05:26.055Z,100521.41
2023-01-29T00:07:56.492Z,100519.00
2023-01-29T00:10:25.094Z,100526.72
2023-01-29T00:12:52.333Z,100523.88
2023-01-29T00:15:19.544Z,100525.50
2023-01-29T00:17:46.615Z,100528.34
2023-01-29T00:20:14.036Z,100522.25
2023-01-29T00:22:41.371Z,100534.41
2023-01-29T00:25:09.246Z,100529.53
2023-01-29T00:27:36.322Z,100529.94
2023-01-29T00:30:03.763Z,100532.97
2023-01-29T00:32:30.834Z,100530.16
2023-01-29T00:34:57.884Z,100532.00
2023-01-29T00:37:25.080Z,100531.19
2023-01-29T00:39:52.141Z,100534.03
2023-01-29T00:42:19.219Z,100542.53
2023-01-29T00:44:46.506Z,100539.06
2023-01-29T00:47:13.625Z,100549.16
2023-01-29T00:49:40.766Z,100553.03
2023-01-29T00:52:07.844Z,100553.00
2023-01-29T00:54:35.268Z,100555.03
2023-01-29T00:57:03.983Z,100556.22
2023-01-29T00:59:31.217Z,100556.63
2023-01-29T01:01:58.521Z,100566.38
2023-01-29T01:04:25.623Z,100561.56
2023-01-29T01:06:52.860Z,100560.94
2023-01-29T01:09:19.918Z,100562.13
2023-01-29T01:11:47.020Z,100565.81
2023-01-29T01:14:14.212Z,100559.50
2023-01-29T01:16:41.445Z,100561.13
2023-01-29T01:19:08.594Z,100555.84
2023-01-29T01:21:35.682Z,100565.81
2023-01-29T01:24:02.927Z,100572.50
2023-01-29T01:26:30.133Z,100576.31
2023-01-29T01:28:57.194Z,100570.84
2023-01-29T01:31:24.535Z,100572.09
2023-01-29T01:33:51.711Z,100568.47
2023-01-29T01:36:18.792Z,100570.00
2023-01-29T01:38:45.870Z,100566.78
2023-01-29T01:41:15.932Z,100564.56
2023-01-29T01:43:52.184Z,100567.63
2023-01-29T01:46:19.768Z,100568.22
2023-01-29T01:48:50.402Z,100563.34
2023-01-29T01:51:18.540Z,100570.84
2023-01-29T01:53:55.099Z,100572.28
2023-01-29T01:56:27.266Z,100571.28
2023-01-29T01:58:59.322Z,100574.50
2023-01-29T02:01:27.733Z,100572.94
2023-01-29T02:04:02.660Z,100570.47
2023-01-29T02:06:30.962Z,100567.41
2023-01-29T02:09:03.498Z,100569.63
2023-01-29T02:11:30.681Z,100570.84
2023-01-29T02:13:57.852Z,100574.31
2023-01-29T02:16:25.362Z,100575.28
2023-01-29T02:18:52.899Z,100573.25
2023-01-29T02:21:41.876Z,100568.00
2023-01-29T02:24:32.608Z,100569.84
2023-01-29T02:27:09.149Z,100568.47
2023-01-29T02:30:09.173Z,100576.34
2023-01-29T02:32:53.001Z,100572.94
2023-01-29T02:35:30.639Z,100566.66
2023-01-29T02:38:06.523Z,100574.13
2023-01-29T02:41:22.967Z,100576.94
2023-01-29T02:44:16.256Z,100574.75
2023-01-29T02:46:56.744Z,100578.19
2023-01-29T02:49:36.280Z,100568.47
2023-01-29T02:52:15.373Z,100566.84
2023-01-29T02:55:01.207Z,100558.75
2023-01-29T02:57:34.241Z,100565.84
2023-01-29T03:00:14.939Z,100568.88
2023-01-29T03:02:48.763Z,100568.69
2023-01-29T03:05:22.354Z,100569.28
2023-01-29T03:07:56.245Z,100567.25
2023-01-29T03:10:40.624Z,100562.78
2023-01-29T03:13:20.830Z,100551.44
2023-01-29T03:15:52.613Z,100559.34
2023-01-29T03:18:24.703Z,100564.59
2023-01-29T03:20:55.881Z,100566.03
2023-01-29T03:23:28.524Z,100571.31
2023-01-29T03:25:59.327Z,100566.03
2023-01-29T03:28:29.382Z,100568.66
2023-01-29T03:31:03.228Z,100580.03
2023-01-29T03:33:35.808Z,100574.94
2023-01-29T03:36:10.062Z,100587.91
2023-01-29T03:38:37.204Z,100585.47
2023-01-29T03:41:26.527Z,100589.56
2023-01-29T03:44:17.517Z,100586.72
2023-01-29T03:46:57.953Z,100579.03
2023-01-29T03:49:57.296Z,100585.31
2023-01-29T03:53:02.497Z,100580.66
2023-01-29T03:56:05.550Z,100581.25
2023-01-29T03:58:56.823Z,100584.28
2023-01-29T04:01:57.470Z,100580.03
2023-01-29T04:04:30.236Z,100590.97
2023-01-29T04:07:05.648Z,100588.56
2023-01-29T04:09:40.826Z,100591.56
2023-01-29T04:12:11.006Z,100583.28
2023-01-29T04:14:38.757Z,100589.13
2023-01-29T04:17:14.825Z,100586.28
2023-01-29T04:19:42.103Z,100592.78
2023-01-29T04:22:15.653Z,100599.28
2023-01-29T04:24:43.108Z,100599.28
2023-01-29T04:27:27.180Z,100612.84
2023-01-29T04:30:03.007Z,100608.81
2023-01-29T04:32:40.831Z,100614.69
2023-01-29T04:35:52.749Z,100619.94
2023-01-29T04:38:58.177Z,100614.66
2023-01-29T04:41:33.788Z,100618.13
2023-01-29T04:44:03.815Z,100623.41
2023-01-29T04:46:57.274Z,100632.47
2023-01-29T04:49:30.183Z,100647.00
2023-01-29T04:52:08.622Z,100643.16
2023-01-29T04:55:03.561Z,100638.44
2023-01-29T04:57:44.132Z,100643.69
2023-01-29T05:00:15.620Z,100654.88
2023-01-29T05:02:45.833Z,100649.31
2023-01-29T05:05:16.485Z,100654.78
2023-01-29T05:07:45.368Z,100648.28
2023-01-29T05:10:15.967Z,100651.44
2023-01-29T05:12:48.327Z,100658.03
2023-01-29T05:15:23.099Z,100662.84
2023-01-29T05:17:50.785Z,100659.84
2023-01-29T05:20:18.718Z,100658.53
2023-01-29T05:22:47.834Z,100658.97
2023-01-29T05:25:25.042Z,100649.69
2023-01-29T05:27:52.690Z,100645.66
2023-01-29T05:30:19.915Z,100652.00
2023-01-29T05:32:47.146Z,100656.25
2023-01-29T05:35:14.969Z,100655.84
2023-01-29T05:37:42.031Z,100647.13
2023-01-29T05:40:09.536Z,100647.53
2023-01-29T05:42:36.933Z,100653.59
2023-01-29T05:45:04.869Z,100652.34
2023-01-29T05:47:32.114Z,100654.97
2023-01-29T05:49:59.220Z,100648.91
2023-01-29T05:52:26.310Z,100649.72
2023-01-29T05:54:53.413Z,100648.69
2023-01-29T05:57:23.242Z,100654.97
2023-01-29T05:59:50.308Z,100656.00
2023-01-29T06:02:17.382Z,100663.28
2023-01-29T06:04:44.916Z,100673.78
2023-01-29T06:07:13.337Z,100678.25
2023-01-29T06:09:40.993Z,100679.47
2023-01-29T06:12:08.793Z,100682.38
2023-01-29T06:14:35.953Z,100683.56
2023-01-29T06:17:05.450Z,100675.88
2023-01-29T06:19:32.551Z,100682.38
2023-01-29T06:21:59.701Z,100688.44
2023-01-29T06:24:26.840Z,100696.53
2023-01-29T06:26:54.159Z,100693.25
2023-01-29T06:29:23.789Z,100691.63
2023-01-29T06:31:50.959Z,100705.06
2023-01-29T06:34:18.147Z,100701.22
2023-01-29T06:36:45.270Z,100706.25
2023-01-29T06:39:12.497Z,100704.66
2023-01-29T06:41:39.605Z,100700.19
2023-01-29T06:44:06.642Z,100701.81
2023-01-29T06:46:33.919Z,100697.13
2023-01-29T06:49:01.009Z,100703.81
2023-01-29T06:51:28.129Z,100720.06
2023-01-29T06:53:55.605Z,100716.81
2023-01-29T06:56:23.325Z,100721.28
2023-01-29T06:58:50.560Z,100720.06
2023-01-29T07:01:34.660Z,100725.41
2023-01-29T07:04:05.888Z,100728.22
2023-01-29T07:06:33.475Z,100728.78
2023-01-29T07:09:00.749Z,100727.59
2023-01-29T07:11:27.920Z,100735.13
2023-01-29T07:13:55.176Z,100739.78
2023-01-29T07:16:22.651Z,100742.44
2023-01-29T07:18:49.739Z,100739.16
2023-01-29T07:21:16.993Z,100743.63
2023-01-29T07:23:44.080Z,100742.44
2023-01-29T07:26:11.738Z,100741.63
2023-01-29T07:28:40.083Z,100741.22
2023-01-29T07:31:08.750Z,100741.84
2023-01-29T07:33:35.918Z,100750.75
2023-01-29T07:36:07.839Z,100756.03
2023-01-29T07:38:34.947Z,100749.13
2023-01-29T07:41:03.244Z,100753.81
2023-01-29T07:43:30.697Z,100761.91
2023-01-29T07:46:02.577Z,100759.69
2023-01-29T07:48:29.906Z,100761.94
2023-01-29T07:50:57.883Z,100761.69
2023-01-29T07:53:25.419Z,100765.16
2023-01-29T07:55:52.768Z,100765.59
2023-01-29T07:58:20.227Z,100768.00
2023-01-29T08:00:47.329Z,100767.59
2023-01-29T08:03:17.616Z,100772.88
2023-01-29T08:05:45.427Z,100766.56
2023-01-29T08:08:13.121Z,100775.28
2023-01-29T08:10:40.865Z,100768.38
2023-01-29T08:13:08.986Z,100767.19
2023-01-29T08:15:38.793Z,100765.97
2023-01-29T08:18:06.899Z,100768.44
2023-01-29T08:20:34.079Z,100772.06
2023-01-29T08:23:06.602Z,100778.50
2023-01-29T08:25:35.362Z,100770.56
2023-01-29T08:28:02.500Z,100780.94
2023-01-29T08:30:32.079Z,100788.66
2023-01-29T08:32:59.589Z,100791.53
2023-01-29T08:35:26.808Z,100788.94
2023-01-29T08:38:01.469Z,100790.66
2023-01-29T08:40:30.045Z,100793.09
2023-01-29T08:43:02.202Z,100792.94
2023-01-29T08:45:31.023Z,100796.16
2023-01-29T08:47:58.057Z,100790.63
2023-01-29T08:50:25.370Z,100792.25
2023-01-29T08:53:00.038Z,100795.06
2023-01-29T08:55:28.481Z,100797.44
2023-01-29T08:57:55.909Z,100800.31
2023-01-29T09:00:23.093Z,100799.56
2023-01-29T09:02:50.380Z,100794.34
2023-01-29T09:05:18.059Z,100796.41
2023-01-29T09:07:45.458Z,100803.09
2023-01-29T09:10:12.639Z,100810.16
2023-01-29T09:12:39.798Z,100806.09
2023-01-29T09:15:07.444Z,100798.47
2023-01-29T09:17:34.783Z,100797.25
2023-01-29T09:20:02.117Z,100795.75
2023-01-29T09:22:30.321Z,100798.97
2023-01-29T09:24:57.524Z,100800.84
2023-01-29T09:27:24.974Z,100788.28
2023-01-29T09:29:52.105Z,100791.41
2023-01-29T09:32:37.649Z,100787.97
2023-01-29T09:35:06.815Z,100782.50
2023-01-29T09:37:33.975Z,100771.44
2023-01-29T09:40:01.066Z,100773.94
2023-01-29T09:42:51.103Z,100766.34
2023-01-29T09:45:28.137Z,100757.22
2023-01-29T09:48:11.703Z,100764.53
2023-01-29T09:50:44.015Z,100763.69
2023-01-29T09:53:19.920Z,100756.44
2023-01-29T09:55:56.108Z,100766.31
2023-01-29T09:58:31.975Z,100754.78
2023-01-29T10:01:17.670Z,100754.50
2023-01-29T10:03:48.198Z,100751.84
2023-01-29T10:06:33.840Z,100750.25
2023-01-29T10:09:28.066Z,100754.94
2023-01-29T10:12:13.511Z,100752.84
2023-01-29T10:15:19.263Z,100756.91
2023-01-29T10:18:31.119Z,100739.44
2023-01-29T10:21:08.517Z,100750.72
2023-01-29T10:23:46.016Z,100742.75
2023-01-29T10:26:14.043Z,100735.56
2023-01-29T10:28:47.427Z,100732.88
2023-01-29T10:31:25.209Z,100728.50
2023-01-29T10:34:03.324Z,100723.97
2023-01-29T10:36:40.393Z,100728.19
2023-01-29T10:39:15.719Z,100731.63
2023-01-29T10:42:04.843Z,100725.50
2023-01-29T10:44:58.654Z,100724.19
2023-01-29T10:48:01.321Z,100718.72
2023-01-29T10:50:45.455Z,100714.66
2023-01-29T10:53:22.484Z,100714.22
2023-01-29T10:56:27.487Z,100699.09
2023-01-29T10:59:01.565Z,100699.22
2023-01-29T11:01:28.876Z,100700.88
2023-01-29T11:03:58.570Z,100693.69
2023-01-29T11:06:30.387Z,100688.81
2023-01-29T11:09:06.642Z,100681.72
2023-01-29T11:11:46.082Z,100688.81
2023-01-29T11:14:30.104Z,100681.56
2023-01-29T11:16:57.430Z,100672.78
2023-01-29T11:19:40.365Z,100670.47
2023-01-29T11:22:14.610Z,100677.59
2023-01-29T11:24:42.828Z,100679.22
2023-01-29T11:27:25.849Z,100674.84
2023-01-29T11:29:54.111Z,100673.72
2023-01-29T11:32:21.274Z,100671.34
2023-01-29T11:34:59.569Z,100681.53
2023-01-29T11:37:37.960Z,100671.78
2023-01-29T11:40:24.473Z,100668.94
2023-01-29T11:42:51.716Z,100653.25
2023-01-29T11:45:31.592Z,100653.53
2023-01-29T11:47:59.707Z,100641.16
2023-01-29T11:50:30.725Z,100637.94
2023-01-29T11:53:01.690Z,100643.38
2023-01-29T11:55:49.427Z,100639.34
2023-01-29T11:58:24.903Z,100644.81
2023-01-29T12:00:53.835Z,100643.75
2023-01-29T12:03:42.111Z,100643.56
2023-01-29T12:06:17.859Z,100632.41
2023-01-29T12:08:58.359Z,100631.88
2023-01-29T12:11:33.890Z,100635.50
2023-01-29T12:14:03.917Z,100637.03
2023-01-29T12:16:38.481Z,100639.38
2023-01-29T12:19:27.911Z,100644.03
2023-01-29T12:22:04.175Z,100633.91
2023-01-29T12:24:41.798Z,100637.88
2023-01-29T12:27:37.995Z,100626.31
2023-01-29T12:30:21.197Z,100622.94
2023-01-29T12:32:56.170Z,100623.75
2023-01-29T12:35:28.385Z,100631.94
2023-01-29T12:38:16.034Z,100628.72
2023-01-29T12:40:58.836Z,100622.41
2023-01-29T12:43:34.981Z,100618.28
2023-01-29T12:46:04.059Z,100630.75
2023-01-29T12:48:39.679Z,100628.28
2023-01-29T12:51:16.266Z,100628.56
2023-01-29T12:54:07.359Z,100633.66
2023-01-29T12:56:46.506Z,100632.53
2023-01-29T12:59:31.470Z,100634.66
2023-01-29T13:02:24.634Z,100641.03
2023-01-29T13:05:02.713Z,100636.06
2023-01-29T13:07:39.900Z,100640.34
2023-01-29T13:10:15.064Z,100634.72
2023-01-29T13:13:09.574Z,100636.84
2023-01-29T13:15:39.637Z,100641.38
2023-01-29T13:18:32.742Z,100645.50
2023-01-29T13:21:01.583Z,100643.63
2023-01-29T13:23:34.159Z,100642.00
2023-01-29T13:26:01.851Z,100638.00
2023-01-29T13:28:29.639Z,100645.41
2023-01-29T13:31:33.032Z,100636.75
2023-01-29T13:34:21.676Z,100629.81
2023-01-29T13:36:55.719Z,100635.00
2023-01-29T13:39:29.102Z,100647.03
2023-01-29T13:41:58.733Z,100639.41
2023-01-29T13:44:35.420Z,100648.06
2023-01-29T13:47:11.762Z,100638.91
2023-01-29T13:49:45.750Z,100650.22
2023-01-29T13:52:39.008Z,100641.78
2023-01-29T13:55:08.887Z,100634.38
2023-01-29T13:57:45.196Z,100641.34
2023-01-29T14:00:21.494Z,100641.56
2023-01-29T14:02:55.057Z,100646.84
2023-01-29T14:05:31.642Z,100639.88
2023-01-29T14:08:01.846Z,100637.06
2023-01-29T14:10:31.572Z,100650.47
2023-01-29T14:13:04.775Z,100646.59
2023-01-29T14:15:37.066Z,100649.53
2023-01-29T14:18:06.150Z,100645.44
2023-01-29T14:20:54.214Z,100640.91
2023-01-29T14:23:32.892Z,100643.22
2023-01-29T14:26:02.532Z,100635.50
2023-01-29T14:28:32.469Z,100641.31
2023-01-29T14:31:00.265Z,100638.44
2023-01-29T14:33:41.811Z,100639.97
2023-01-29T14:36:13.289Z,100638.16
2023-01-29T14:38:47.603Z,100639.16
2023-01-29T14:41:26.712Z,100635.84
2023-01-29T14:44:32.212Z,100640.06
2023-01-29T14:46:59.492Z,100643.25
2023-01-29T14:49:55.868Z,100645.28
2023-01-29T14:52:40.236Z,100642.59
2023-01-29T14:55:37.169Z,100641.38
2023-01-29T14:58:05.264Z,100644.94
2023-01-29T15:00:38.840Z,100646.22
2023-01-29T15:03:39.404Z,100641.81
2023-01-29T15:06:14.374Z,100639.88
2023-01-29T15:08:49.430Z,100643.03
2023-01-29T15:11:33.974Z,100645.06
2023-01-29T15:14:04.074Z,100651.13
2023-01-29T15:16:53.108Z,100651.78
2023-01-29T15:19:29.887Z,100645.03
2023-01-29T15:22:06.310Z,100637.91
2023-01-29T15:24:33.638Z,100642.44
2023-01-29T15:27:01.633Z,100639.16
2023-01-29T15:29:30.074Z,100636.53
2023-01-29T15:31:57.906Z,100628.53
2023-01-29T15:34:25.996Z,100643.28
2023-01-29T15:36:53.380Z,100635.94
2023-01-29T15:39:24.941Z,100633.06
2023-01-29T15:42:04.608Z,100660.53
2023-01-29T15:44:31.835Z,100656.41
2023-01-29T15:47:01.475Z,100658.44
2023-01-29T15:49:34.680Z,100659.63
2023-01-29T15:52:18.645Z,100667.38
2023-01-29T15:54:46.543Z,100663.31
2023-01-29T15:57:23.844Z,100667.75
2023-01-29T15:59:54.298Z,100669.75
2023-01-29T16:02:28.160Z,100658.34
2023-01-29T16:04:55.833Z,100661.69
2023-01-29T16:07:23.264Z,100664.28
2023-01-29T16:09:52.459Z,100657.47
2023-01-29T16:12:20.108Z,100651.16
2023-01-29T16:14:49.620Z,100650.63
2023-01-29T16:17:34.971Z,100649.50
2023-01-29T16:20:20.098Z,100647.50
2023-01-29T16:22:47.393Z,100661.66
2023-01-29T16:25:16.487Z,100660.94
2023-01-29T16:27:44.250Z,100661.31
2023-01-29T16:30:16.880Z,100661.94
2023-01-29T16:32:44.524Z,100663.66
2023-01-29T16:35:17.423Z,100674.28
2023-01-29T16:37:50.390Z,100670.03
2023-01-29T16:40:37.511Z,100672.88
2023-01-29T16:43:19.579Z,100671.69
2023-01-29T16:46:03.042Z,100678.66
2023-01-29T16:48:48.152Z,100683.41
2023-01-29T16:51:24.779Z,100689.44
2023-01-29T16:53:57.079Z,100689.22
2023-01-29T16:56:27.964Z,100681.63
2023-01-29T16:58:55.759Z,100679.06
2023-01-29T17:01:26.693Z,100684.38
2023-01-29T17:04:18.667Z,100676.16
2023-01-29T17:06:47.788Z,100683.94
2023-01-29T17:09:28.611Z,100686.91
2023-01-29T17:12:01.845Z,100686.09
2023-01-29T17:14:32.251Z,100683.47
2023-01-29T17:17:15.138Z,100685.19
2023-01-29T17:19:42.685Z,100693.38
2023-01-29T17:22:09.814Z,100692.22
2023-01-29T17:24:37.168Z,100684.47
2023-01-29T17:27:04.400Z,100682.63
2023-01-29T17:29:31.981Z,100674.38
2023-01-29T17:32:00.187Z,100685.28
2023-01-29T17:34:27.718Z,100670.72
2023-01-29T17:36:55.701Z,100677.25
2023-01-29T17:39:24.312Z,100669.56
2023-01-29T17:41:54.255Z,100670.41
2023-01-29T17:44:22.491Z,100677.81
2023-01-29T17:46:49.932Z,100678.00
2023-01-29T17:49:25.310Z,100677.44
2023-01-29T17:51:54.333Z,100675.94
2023-01-29T17:54:22.333Z,100671.63
2023-01-29T17:56:50.543Z,100671.63
2023-01-29T17:59:23.486Z,100679.78
2023-01-29T18:01:51.189Z,100674.69
2023-01-29T18:04:18.764Z,100683.28
2023-01-29T18:06:49.094Z,100686.59
2023-01-29T18:09:18.977Z,100693.69
2023-01-29T18:11:47.553Z,100685.56
2023-01-29T18:14:15.457Z,100689.53
2023-01-29T18:16:44.315Z,100691.06
2023-01-29T18:19:23.437Z,100682.22
2023-01-29T18:21:50.882Z,100677.47
2023-01-29T18:24:18.167Z,100683.22
2023-01-29T18:26:45.610Z,100685.06
2023-01-29T18:29:13.034Z,100670.06
2023-01-29T18:31:40.253Z,100670.88
2023-01-29T18:34:07.666Z,100667.63
2023-01-29T18:36:35.551Z,100673.00
2023-01-29T18:39:02.717Z,100672.47
2023-01-29T18:41:30.441Z,100668.78
2023-01-29T18:43:57.674Z,100669.72
2023-01-29T18:46:24.958Z,100665.19
2023-01-29T18:48:52.166Z,100670.97
2023-01-29T18:51:19.399Z,100672.38
2023-01-29T18:53:53.701Z,100664.50
2023-01-29T18:56:21.859Z,100672.63
2023-01-29T18:58:52.144Z,100680.13
2023-01-29T19:01:23.525Z,100680.75
2023-01-29T19:03:50.699Z,100680.94
2023-01-29T19:06:17.976Z,100679.38
2023-01-29T19:08:45.552Z,100681.38
2023-01-29T19:11:12.896Z,100672.84
2023-01-29T19:13:40.181Z,100667.69
2023-01-29T19:16:08.820Z,100671.00
2023-01-29T19:18:36.592Z,100662.50
2023-01-29T19:21:12.618Z,100664.31
2023-01-29T19:23:41.636Z,100675.09
2023-01-29T19:26:10.552Z,100685.22
2023-01-29T19:28:37.847Z,100670.19
2023-01-29T19:31:05.338Z,100672.63
2023-01-29T19:33:33.035Z,100658.84
2023-01-29T19:36:00.988Z,100659.91
2023-01-29T19:38:28.571Z,100658.47
2023-01-29T19:40:55.821Z,100657.66
2023-01-29T19:43:23.047Z,100667.59
2023-01-29T19:46:00.606Z,100665.97
2023-01-29T19:48:28.337Z,100670.03
2023-01-29T19:51:03.945Z,100670.66
2023-01-29T19:53:31.627Z,100673.47
2023-01-29T19:56:04.662Z,100674.84
2023-01-29T19:58:33.595Z,100678.44
2023-01-29T20:01:13.178Z,100672.19
2023-01-29T20:03:41.028Z,100669.78
2023-01-29T20:06:08.894Z,100679.75
2023-01-29T20:08:36.208Z,100669.63
2023-01-29T20:11:03.856Z,100667.75
2023-01-29T20:13:32.086Z,100681.59
2023-01-29T20:15:59.818Z,100682.19
2023-01-29T20:18:27.093Z,100686.47
2023-01-29T20:20:54.391Z,100687.28
2023-01-29T20:23:36.657Z,100686.88
2023-01-29T20:26:10.891Z,100681.59
2023-01-29T20:28:38.281Z,100682.81
2023-01-29T20:31:06.690Z,100688.09
2023-01-29T20:33:35.095Z,100691.75
2023-01-29T20:36:05.106Z,100694.38
2023-01-29T20:38:33.061Z,100701.06
2023-01-29T20:41:14.539Z,100695.75
2023-01-29T20:43:42.344Z,100710.38
2023-01-29T20:46:10.224Z,100715.03
2023-01-29T20:48:37.600Z,100710.78
2023-01-29T20:51:13.373Z,100712.59
2023-01-29T20:53:42.243Z,100720.47
2023-01-29T20:56:09.914Z,100714.56
2023-01-29T20:58:39.062Z,100715.97
2023-01-29T21:01:14.853Z,100720.84
2023-01-29T21:03:42.558Z,100717.59
2023-01-29T21:06:11.091Z,100712.25
2023-01-29T21:08:39.141Z,100721.06
2023-01-29T21:11:08.431Z,100724.47
2023-01-29T21:13:37.338Z,100733.66
2023-01-29T21:16:05.002Z,100728.97
2023-01-29T21:18:32.032Z,100723.03
2023-01-29T21:20:59.124Z,100712.06
2023-01-29T21:23:26.625Z,100728.03
2023-01-29T21:25:53.762Z,100737.75
2023-01-29T21:28:20.847Z,100733.91
2023-01-29T21:30:48.177Z,100719.56
2023-01-29T21:33:15.452Z,100730.03
2023-01-29T21:35:42.649Z,100731.88
2023-01-29T21:38:10.702Z,100721.59
2023-01-29T21:40:37.859Z,100719.59
2023-01-29T21:43:08.107Z,100722.91
2023-01-29T21:45:35.803Z,100726.50
2023-01-29T21:48:02.988Z,100723.69
2023-01-29T21:50:30.066Z,100717.25
2023-01-29T21:52:57.355Z,100716.63
2023-01-29T21:55:24.482Z,100715.22
2023-01-29T21:57:51.594Z,100712.16
2023-01-29T22:00:19.337Z,100716.47
2023-01-29T22:03:06.345Z,100717.84
2023-01-29T22:05:33.721Z,100712.56
2023-01-29T22:08:00.829Z,100717.41
2023-01-29T22:10:28.129Z,100707.13
2023-01-29T22:12:55.383Z,100706.69
2023-01-29T22:15:23.996Z,100706.88
2023-01-29T22:17:51.377Z,100708.50
2023-01-29T22:20:19.430Z,100709.56
2023-01-29T22:22:46.659Z,100714.41
2023-01-29T22:25:13.727Z,100707.91
2023-01-29T22:27:40.816Z,100704.25
2023-01-29T22:30:08.670Z,100721.69
2023-01-29T22:32:35.903Z,100705.09
2023-01-29T22:35:03.060Z,100713.81
2023-01-29T22:37:30.197Z,100703.44
2023-01-29T22:39:57.814Z,100705.50
2023-01-29T22:42:25.008Z,100705.53
2023-01-29T22:44:52.090Z,100703.91
2023-01-29T22:47:19.188Z,100705.53
2023-01-29T22:49:46.257Z,100703.09
2023-01-29T22:52:13.350Z,100699.22
2023-01-29T22:54:42.924Z,100695.00
2023-01-29T22:57:12.582Z,100695.81
2023-01-29T22:59:39.893Z,100692.94
2023-01-29T23:02:08.112Z,100685.25
2023-01-29T23:04:35.399Z,100691.53
2023-01-29T23:07:03.621Z,100692.34
2023-01-29T23:09:30.731Z,100688.69
2023-01-29T23:11:57.918Z,100687.66
2023-01-29T23:14:25.058Z,100682.00
2023-01-29T23:16:52.117Z,100688.09
2023-01-29T23:19:19.301Z,100681.00
2023-01-29T23:21:46.604Z,100689.72
2023-01-29T23:24:13.732Z,100678.94
2023-01-29T23:26:40.836Z,100686.28
2023-01-29T23:29:07.967Z,100676.31
2023-01-29T23:31:35.146Z,100682.81
2023-01-29T23:34:02.633Z,100676.31
2023-01-29T23:36:30.104Z,100674.09
2023-01-29T23:38:57.273Z,100675.09
2023-01-29T23:41:24.479Z,100671.47
2023-01-29T23:43:51.789Z,100671.47
2023-01-29T23:46:18.850Z,100669.84
2023-01-29T23:48:46.050Z,100666.38
2023-01-29T23:51:13.095Z,100664.56
2023-01-29T23:53:40.353Z,100665.38
2023-01-29T23:56:07.848Z,100663.13
2023-01-29T23:58:34.962Z,100664.75
